ΕΜΥ, Εθνική Μετεωρολογική Υπηρεσία - Δελτία Καιρού, Προγνώσεις

ΑΕΡΟΝΑΥΤΙΛΙΑ

GREEK AIRPORTS CODES

TAF LGKF 040800Z 0409/0418 18010KT 9999 FEW018 TEMPO 0412/0418 FEW018 SCT080=

EUROPEAN AIRPORTS CODES

EDDB 041020Z 33009KT 280V360 CAVOK 23/09 Q1013 NOSIG=